Airfield :
LOGIN :

Register | Disclaimer

   EN    FR    IT 

 










Legend :    VFR   Marginal VFR   IFR   Intensive IFR   Very Intensive IFR
Visi :
Ceiling :
>= 8 km
>= 3000ft
5 to 8 km
1000 to 3000 ft
1500m to 5 km
500 to 1000 ft
800 to 1500m
200 to 500 ft
< 800m
< 200 ft
Symbols :   Thunderstorms  Fog  Heavy snow  Heavy precipitations  Wind > 20 kt
SIGMETs :     Misc.  Thunderstorms  Icing  Turbulence  Mountain Waves  Volcanic Ashes







- Airport Elevation : 74 ft
- IATA code : EIN


EHEH - Eindhoven

CURRENT METAR :
  • 240525Z AUTO 15003KT 120V200 5000 -SHRA FEW015CB BKN051 BKN056 07/07 Q1005 WHT

EXPIRED METARs :
  • 240509Z AUTO VRB02KT 9000 -RA FEW015CB OVC058 08/07 Q1006 BLU
  • 240459Z AUTO VRB02KT 8000 -SHRA FEW015CB OVC052 08/07 Q1006 BLU
  • 240455Z AUTO 27003KT 210V310 7000 -RA FEW015CB BKN052 OVC057 08/07 Q1006 RERA REDZ WHT
  • 240425Z AUTO 28007KT 240V330 8000 RA SCT015CB BKN026 BKN029 08/07 Q1007 WHT
  • 240414Z AUTO 28007KT 240V320 8000 RA FEW006 BKN015CB OVC018 08/07 Q1006 WHT
  • 240404Z AUTO 29004KT 260V340 8000 RA FEW007 SCT009 BKN013 BKN015CB 08/07 Q1006 GRN
  • 240355Z AUTO 23005KT 220V300 8000 SHRA SCT015CB BKN029 OVC033 08/07 Q1006 REDZ WHT
  • 240346Z AUTO 22003KT 9999 -RADZ FEW017 BKN033 OVC037 08/07 Q1006 BLU
  • 240333Z AUTO 20002KT 9999 BKN018 BKN022 OVC030 08/07 Q1006 WHT
  • 240325Z AUTO 18003KT 180V240 9999 FEW025 OVC032 08/07 Q1006 BLU
  • 240255Z AUTO 19006KT 9999 -RADZ BKN027 BKN031 OVC051 08/07 Q1007 RERA REDZ BLU
  • 240232Z AUTO 19006KT 9999 -RADZ FEW015CB SCT033 BKN048 09/07 Q1007 BLU

TAF TAF EHEH
Valid from the 24 at 00:00 until the 25 at 06:00 UTC


232315Z 2400/2506 22007KT 9999 SCT025 BKN030
BECMG 2400/2402 VRB04KT 7000 -RA -RADZ OVC020
TEMPO 2402/2409 4500 RA SHRA FEW010 SCT015CB BKN020
BECMG 2409/2412 9999 NSW BKN020
PROB30
TEMPO 2412/2501 FEW010 SCT017CB BKN022
BECMG 2500/2503 4500 BR MIFG
PROB30
TEMPO 2503/2506 2000 MIFG SCT002
No reported NOTAMs for that airfield.



MET'MAP, your aeronautical weather chart ! - Copyright ORBIFLY December 2007 - Disclaimer

ORBIFLY MET'MAP TEAM :

Programming & Development : Alexandra Zaïnal
Concept & Development : Baudouin d'Aumeries
Co-Development & Prog : Marc-Olivier Méhu
Technical & hardware support : Manuel Goepfert

Contact : metmap@orbifly.com




SOURCES & CREDITS :

   NOAA